createdAt,value
2018-07-17T00:00:07.097Z,64.20
2018-07-17T00:02:35.848Z,64.20
2018-07-17T00:05:06.105Z,63.90
2018-07-17T00:07:34.963Z,63.90
2018-07-17T00:10:04.039Z,63.80
2018-07-17T00:12:32.957Z,63.70
2018-07-17T00:15:01.755Z,63.80
2018-07-17T00:17:30.572Z,63.70
2018-07-17T00:19:59.377Z,63.70
2018-07-17T00:22:29.186Z,63.90
2018-07-17T00:24:57.946Z,63.90
2018-07-17T00:27:26.886Z,63.80
2018-07-17T00:29:55.716Z,64.20
2018-07-17T00:32:24.478Z,64.70
2018-07-17T00:34:53.235Z,64.60
2018-07-17T00:37:22.004Z,64.60
2018-07-17T00:39:50.765Z,64.60
2018-07-17T00:42:19.551Z,64.60
2018-07-17T00:44:48.319Z,64.70
2018-07-17T00:47:17.211Z,64.70
2018-07-17T00:49:46.003Z,65.20
2018-07-17T00:52:14.749Z,65.40
2018-07-17T00:54:43.531Z,65.60
2018-07-17T00:57:12.300Z,66.40
2018-07-17T00:59:41.107Z,65.80
2018-07-17T01:02:15.215Z,66.20
2018-07-17T01:04:49.436Z,66.70
2018-07-17T01:07:23.638Z,65.60
2018-07-17T01:09:57.799Z,65.60
2018-07-17T01:12:25.887Z,65.60
2018-07-17T01:14:59.572Z,65.90
2018-07-17T01:17:28.718Z,65.90
2018-07-17T01:19:57.619Z,65.60
2018-07-17T01:22:26.414Z,65.50
2018-07-17T01:24:55.177Z,65.40
2018-07-17T01:27:23.921Z,65.70
2018-07-17T01:32:21.194Z,65.60
2018-07-17T01:34:49.951Z,65.80
2018-07-17T01:37:18.741Z,65.60
2018-07-17T01:39:47.513Z,65.80
2018-07-17T01:42:16.340Z,65.90
2018-07-17T01:49:42.031Z,65.50
2018-07-17T01:52:10.839Z,65.30
2018-07-17T01:54:39.621Z,65.30
2018-07-17T01:57:08.397Z,64.50
2018-07-17T01:59:37.204Z,65.30
2018-07-17T02:02:06.067Z,65.30
2018-07-17T02:04:34.998Z,65.30
2018-07-17T02:07:03.767Z,65.20
2018-07-17T02:09:32.571Z,65.50
2018-07-17T02:12:01.345Z,65.50
2018-07-17T02:14:30.173Z,65.40
2018-07-17T02:16:58.924Z,65.50
2018-07-17T02:19:27.715Z,65.50
2018-07-17T02:21:56.504Z,65.50
2018-07-17T02:24:25.317Z,65.40
2018-07-17T02:26:54.054Z,65.50
2018-07-17T02:29:22.905Z,65.60
2018-07-17T02:31:51.801Z,65.80
2018-07-17T02:34:20.604Z,65.70
2018-07-17T02:36:49.356Z,65.40
2018-07-17T02:39:18.122Z,64.40
2018-07-17T02:41:46.887Z,65.10
2018-07-17T02:44:15.633Z,65.10
2018-07-17T02:46:44.408Z,65.20
2018-07-17T02:49:13.120Z,65.30
2018-07-17T02:51:41.914Z,65.20
2018-07-17T02:54:10.680Z,65.20
2018-07-17T02:56:39.463Z,65.30
2018-07-17T02:59:08.259Z,65.30
2018-07-17T03:01:36.972Z,65.30
2018-07-17T03:04:06.012Z,65.30
2018-07-17T03:06:34.795Z,65.20
2018-07-17T03:09:03.665Z,65.20
2018-07-17T03:11:32.496Z,65.10
2018-07-17T03:14:01.239Z,65.00
2018-07-17T03:16:30.047Z,65.00
2018-07-17T03:18:58.841Z,65.10
2018-07-17T03:21:27.664Z,65.10
2018-07-17T03:23:56.403Z,65.10
2018-07-17T03:26:25.165Z,65.20
2018-07-17T03:31:22.358Z,65.70
2018-07-17T03:33:51.159Z,65.80
2018-07-17T03:36:20.038Z,65.60
2018-07-17T03:41:17.341Z,65.30
2018-07-17T03:43:46.132Z,65.40
2018-07-17T03:46:15.091Z,65.30
2018-07-17T03:51:12.437Z,65.20
2018-07-17T03:56:09.730Z,65.30
2018-07-17T03:58:38.501Z,65.10
2018-07-17T04:01:07.286Z,65.10
2018-07-17T04:06:04.539Z,65.20
2018-07-17T04:08:33.348Z,65.20
2018-07-17T04:11:02.117Z,65.20
2018-07-17T04:13:30.944Z,65.30
2018-07-17T04:15:59.637Z,65.30
2018-07-17T04:18:28.415Z,65.40
2018-07-17T04:20:57.208Z,65.60
2018-07-17T04:23:25.947Z,65.90
2018-07-17T04:25:54.781Z,65.70
2018-07-17T04:28:23.544Z,65.60
2018-07-17T04:30:52.372Z,65.60
2018-07-17T04:33:21.560Z,65.60
2018-07-17T04:35:50.414Z,65.50
2018-07-17T04:38:19.226Z,65.40
2018-07-17T04:40:48.080Z,65.30
2018-07-17T04:43:16.802Z,65.20
2018-07-17T04:48:14.088Z,65.20
2018-07-17T04:50:42.888Z,65.20
2018-07-17T04:53:11.647Z,65.00
2018-07-17T04:55:40.500Z,64.80
2018-07-17T04:58:09.420Z,65.10
2018-07-17T05:00:38.204Z,65.10
2018-07-17T05:03:06.958Z,65.90
2018-07-17T05:05:35.786Z,65.30
2018-07-17T05:08:04.687Z,65.20
2018-07-17T05:10:33.473Z,64.90
2018-07-17T05:13:02.270Z,64.80
2018-07-17T05:15:30.991Z,64.70
2018-07-17T05:17:59.848Z,64.60
2018-07-17T05:22:57.275Z,64.80
2018-07-17T05:25:26.031Z,64.90
2018-07-17T05:27:54.784Z,65.10
2018-07-17T05:30:23.578Z,64.90
2018-07-17T05:32:52.463Z,64.80
2018-07-17T05:35:21.302Z,64.70
2018-07-17T05:37:50.245Z,63.70
2018-07-17T05:40:19.061Z,63.70
2018-07-17T05:42:47.949Z,63.80
2018-07-17T05:45:16.689Z,63.70
2018-07-17T05:47:45.504Z,63.50
2018-07-17T05:50:14.319Z,63.40
2018-07-17T05:55:11.544Z,64.00
2018-07-17T05:57:40.378Z,64.20
2018-07-17T06:02:38.522Z,63.80
2018-07-17T06:05:07.300Z,64.60
2018-07-17T06:07:36.411Z,63.80
2018-07-17T06:10:05.271Z,64.20
2018-07-17T06:12:34.077Z,64.50
2018-07-17T06:15:02.969Z,64.40
2018-07-17T06:17:31.820Z,64.40
2018-07-17T06:20:00.677Z,64.30
2018-07-17T06:22:29.553Z,64.00
2018-07-17T06:24:58.389Z,64.00
2018-07-17T06:27:27.288Z,64.10
2018-07-17T06:29:56.148Z,64.40
2018-07-17T06:32:24.929Z,64.40
2018-07-17T06:34:53.775Z,64.10
2018-07-17T06:37:22.726Z,64.90
2018-07-17T06:39:51.471Z,64.10
2018-07-17T06:42:20.606Z,63.70
2018-07-17T06:44:49.463Z,63.70
2018-07-17T06:47:18.245Z,63.70
2018-07-17T06:49:47.025Z,62.80
2018-07-17T06:52:15.748Z,63.20
2018-07-17T06:54:44.515Z,63.00
2018-07-17T06:57:13.310Z,63.20
2018-07-17T06:59:42.185Z,63.10
2018-07-17T07:02:10.984Z,62.50
2018-07-17T07:04:39.782Z,62.00
2018-07-17T07:07:08.583Z,62.00
2018-07-17T07:09:37.324Z,61.30
2018-07-17T07:12:07.034Z,61.40
2018-07-17T07:14:35.805Z,60.30
2018-07-17T07:19:33.272Z,60.60
2018-07-17T07:24:30.572Z,59.60
2018-07-17T07:26:59.537Z,58.60
2018-07-17T07:29:28.355Z,58.00
2018-07-17T07:31:57.110Z,58.30
2018-07-17T07:34:25.867Z,58.20
2018-07-17T07:36:54.789Z,57.70
2018-07-17T07:39:23.551Z,57.50
2018-07-17T07:41:52.306Z,57.10
2018-07-17T07:44:21.188Z,57.30
2018-07-17T07:46:50.025Z,57.60
2018-07-17T07:49:18.860Z,57.00
2018-07-17T07:51:47.651Z,57.10
2018-07-17T07:54:16.433Z,57.50
2018-07-17T07:56:45.312Z,57.30
2018-07-17T07:59:14.114Z,56.90
2018-07-17T08:01:42.893Z,56.50
2018-07-17T08:06:40.357Z,55.60
2018-07-17T08:09:09.810Z,54.80
2018-07-17T08:11:38.676Z,55.10
2018-07-17T08:14:07.502Z,54.90
2018-07-17T08:16:36.316Z,54.40
2018-07-17T08:19:05.047Z,52.30
2018-07-17T08:21:33.771Z,52.90
2018-07-17T08:24:02.642Z,53.00
2018-07-17T08:26:31.416Z,53.20
2018-07-17T08:29:00.338Z,52.80
2018-07-17T08:31:29.120Z,52.90
2018-07-17T08:33:58.004Z,52.90
2018-07-17T08:36:26.848Z,52.60
2018-07-17T08:43:52.727Z,52.90
2018-07-17T08:46:21.578Z,53.30
2018-07-17T08:48:50.430Z,53.40
2018-07-17T08:51:19.522Z,53.80
2018-07-17T08:53:48.280Z,54.10
2018-07-17T08:58:45.584Z,54.50
2018-07-17T09:01:14.304Z,53.40
2018-07-17T09:03:43.154Z,53.20
2018-07-17T09:06:12.032Z,53.90
2018-07-17T09:08:40.813Z,53.60
2018-07-17T09:11:09.559Z,53.80
2018-07-17T09:13:38.357Z,53.00
2018-07-17T09:16:07.182Z,53.50
2018-07-17T09:18:36.701Z,53.00
2018-07-17T09:21:05.919Z,53.00
2018-07-17T09:23:34.817Z,53.00
2018-07-17T09:26:03.710Z,53.20
2018-07-17T09:28:32.467Z,52.90
2018-07-17T09:31:02.291Z,53.10
2018-07-17T09:33:31.842Z,53.60
2018-07-17T09:36:00.985Z,53.70
2018-07-17T09:38:30.233Z,53.20
2018-07-17T09:40:58.968Z,53.90
2018-07-17T09:43:27.769Z,54.20
2018-07-17T09:45:56.634Z,52.70
2018-07-17T09:48:25.461Z,52.60
2018-07-17T09:50:54.241Z,52.70
2018-07-17T09:53:23.004Z,53.20
2018-07-17T09:55:51.811Z,53.30
2018-07-17T09:58:20.631Z,51.80
2018-07-17T10:00:54.975Z,52.10
2018-07-17T10:03:23.835Z,51.70
2018-07-17T10:05:52.690Z,51.40
2018-07-17T10:08:21.548Z,50.30
2018-07-17T10:10:50.327Z,50.70
2018-07-17T10:13:19.198Z,50.20
2018-07-17T10:15:48.038Z,50.60
2018-07-17T10:18:16.796Z,50.70
2018-07-17T10:20:45.571Z,51.20
2018-07-17T10:23:14.448Z,50.50
2018-07-17T10:25:43.197Z,49.60
2018-07-17T10:33:09.365Z,49.80
2018-07-17T10:35:38.159Z,49.50
2018-07-17T10:38:07.227Z,50.50
2018-07-17T10:40:36.023Z,50.50
2018-07-17T10:43:04.779Z,50.10
2018-07-17T10:45:33.808Z,49.50
2018-07-17T10:52:59.728Z,49.20
2018-07-17T10:55:28.526Z,48.90
2018-07-17T10:57:57.334Z,49.30
2018-07-17T11:00:26.171Z,48.90
2018-07-17T11:02:54.909Z,48.50
2018-07-17T11:05:23.685Z,48.10
2018-07-17T11:07:52.523Z,48.70
2018-07-17T11:10:21.292Z,48.30
2018-07-17T11:12:50.140Z,48.40
2018-07-17T11:15:18.892Z,48.50
2018-07-17T11:17:47.865Z,48.90
2018-07-17T11:20:16.779Z,49.20
2018-07-17T11:22:45.621Z,48.70
2018-07-17T11:25:14.472Z,49.00
2018-07-17T11:27:43.259Z,48.60
2018-07-17T11:30:12.204Z,48.80
2018-07-17T11:32:41.049Z,49.70
2018-07-17T11:35:09.792Z,49.20
2018-07-17T11:40:07.205Z,48.90
2018-07-17T11:42:36.016Z,48.70
2018-07-17T11:45:05.058Z,48.80
2018-07-17T11:50:02.454Z,48.50
2018-07-17T11:52:31.683Z,47.80
2018-07-17T11:55:00.408Z,48.30
2018-07-17T11:57:29.137Z,47.90
2018-07-17T11:59:57.885Z,48.50
2018-07-17T12:04:55.074Z,47.60
2018-07-17T12:07:24.235Z,47.80
2018-07-17T12:09:53.024Z,47.90
2018-07-17T12:12:21.779Z,47.20
2018-07-17T12:14:50.538Z,47.80
2018-07-17T12:17:19.311Z,47.40
2018-07-17T12:19:48.157Z,47.30
2018-07-17T12:24:45.477Z,46.70
2018-07-17T12:27:14.248Z,47.30
2018-07-17T12:29:42.982Z,47.80
2018-07-17T12:32:11.938Z,47.30
2018-07-17T12:37:09.197Z,47.00
2018-07-17T12:39:38.000Z,46.70
2018-07-17T12:42:06.837Z,46.30
2018-07-17T12:44:35.617Z,46.20
2018-07-17T12:47:04.344Z,46.00
2018-07-17T12:49:33.115Z,45.70
2018-07-17T12:52:01.859Z,45.60
2018-07-17T12:54:30.689Z,44.80
2018-07-17T12:56:59.421Z,45.00
2018-07-17T12:59:28.187Z,44.70
2018-07-17T13:01:57.031Z,44.80
2018-07-17T13:04:25.751Z,44.60
2018-07-17T13:06:54.555Z,43.20
2018-07-17T13:09:23.364Z,44.20
2018-07-17T13:11:52.114Z,44.50
2018-07-17T13:14:20.892Z,44.60
2018-07-17T13:16:49.728Z,44.40
2018-07-17T13:21:46.931Z,45.10
2018-07-17T13:24:15.670Z,45.00
2018-07-17T13:26:44.412Z,44.90
2018-07-17T13:29:13.207Z,44.70
2018-07-17T13:31:42.276Z,45.30
2018-07-17T13:34:11.037Z,45.00
2018-07-17T13:41:37.520Z,44.60
2018-07-17T13:44:06.315Z,44.40
2018-07-17T13:46:35.076Z,44.70
2018-07-17T13:49:03.891Z,44.20
2018-07-17T13:51:32.782Z,43.60
2018-07-17T13:54:01.681Z,43.30
2018-07-17T13:56:30.572Z,43.60
2018-07-17T13:58:59.406Z,44.00
2018-07-17T14:01:28.316Z,43.60
2018-07-17T14:06:25.609Z,43.30
2018-07-17T14:08:54.379Z,43.90
2018-07-17T14:11:23.164Z,44.00
2018-07-17T14:13:51.989Z,44.20
2018-07-17T14:18:49.235Z,44.40
2018-07-17T14:23:46.531Z,44.20
2018-07-17T14:26:15.332Z,43.70
2018-07-17T14:28:44.087Z,44.00
2018-07-17T14:31:12.843Z,43.80
2018-07-17T14:33:41.655Z,43.50
2018-07-17T14:36:10.385Z,42.80
2018-07-17T14:38:39.120Z,42.40
2018-07-17T14:41:07.907Z,42.10
2018-07-17T14:43:36.742Z,42.40
2018-07-17T14:46:05.582Z,42.80
2018-07-17T14:48:36.996Z,43.30
2018-07-17T14:51:07.750Z,43.30
2018-07-17T14:53:36.931Z,44.00
2018-07-17T14:56:05.776Z,44.20
2018-07-17T15:01:03.780Z,44.20
2018-07-17T15:03:32.803Z,44.10
2018-07-17T15:06:01.644Z,44.60
2018-07-17T15:08:30.472Z,44.70
2018-07-17T15:10:59.222Z,44.80
2018-07-17T15:13:27.965Z,45.20
2018-07-17T15:15:56.879Z,45.50
2018-07-17T15:18:25.577Z,45.30
2018-07-17T15:20:54.349Z,45.30
2018-07-17T15:23:23.202Z,45.50
2018-07-17T15:28:20.444Z,46.20
2018-07-17T15:30:49.283Z,46.00
2018-07-17T15:33:18.025Z,46.30
2018-07-17T15:35:46.776Z,46.50
2018-07-17T15:38:15.567Z,46.80
2018-07-17T15:43:12.701Z,46.40
2018-07-17T15:45:41.488Z,46.70
2018-07-17T15:48:10.287Z,47.00
2018-07-17T15:50:39.037Z,46.90
2018-07-17T15:53:07.791Z,47.00
2018-07-17T15:55:36.570Z,47.40
2018-07-17T15:58:05.325Z,47.30
2018-07-17T16:00:34.173Z,47.10
2018-07-17T16:03:02.952Z,47.80
2018-07-17T16:05:31.735Z,47.40
2018-07-17T16:08:00.472Z,47.80
2018-07-17T16:10:29.282Z,48.20
2018-07-17T16:12:58.029Z,48.60
2018-07-17T16:15:26.844Z,48.90
2018-07-17T16:17:55.630Z,49.90
2018-07-17T16:20:24.416Z,50.40
2018-07-17T16:22:53.181Z,51.10
2018-07-17T16:25:21.920Z,51.70
2018-07-17T16:27:50.730Z,52.00
2018-07-17T16:30:19.458Z,52.30
2018-07-17T16:32:48.353Z,52.10
2018-07-17T16:40:14.085Z,52.90
2018-07-17T16:42:42.873Z,52.70
2018-07-17T16:45:11.671Z,52.60
2018-07-17T16:47:40.566Z,52.60
2018-07-17T16:50:09.343Z,52.30
2018-07-17T16:52:38.237Z,52.00
2018-07-17T16:55:07.024Z,51.50
2018-07-17T16:57:36.098Z,51.10
2018-07-17T17:00:05.175Z,51.10
2018-07-17T17:02:33.961Z,51.30
2018-07-17T17:05:02.805Z,50.80
2018-07-17T17:07:31.619Z,51.00
2018-07-17T17:10:00.337Z,51.20
2018-07-17T17:12:29.077Z,51.50
2018-07-17T17:14:57.910Z,51.50
2018-07-17T17:17:26.711Z,51.20
2018-07-17T17:19:55.572Z,51.10
2018-07-17T17:22:24.357Z,51.20
2018-07-17T17:24:53.536Z,51.40
2018-07-17T17:29:50.962Z,51.30
2018-07-17T17:32:19.798Z,51.40
2018-07-17T17:34:48.668Z,51.60
2018-07-17T17:37:17.523Z,51.70
2018-07-17T17:39:46.318Z,51.80
2018-07-17T17:42:15.192Z,52.00
2018-07-17T17:44:44.034Z,52.40
2018-07-17T17:47:12.875Z,52.30
2018-07-17T17:49:41.646Z,52.20
2018-07-17T17:52:10.383Z,52.30
2018-07-17T17:54:39.181Z,52.40
2018-07-17T17:57:07.944Z,52.60
2018-07-17T17:59:36.743Z,52.70
2018-07-17T18:02:05.723Z,53.30
2018-07-17T18:04:34.568Z,52.70
2018-07-17T18:09:31.841Z,53.10
2018-07-17T18:12:00.692Z,53.00
2018-07-17T18:14:29.506Z,53.40
2018-07-17T18:16:58.390Z,53.60
2018-07-17T18:19:27.139Z,53.80
2018-07-17T18:21:55.935Z,54.10
2018-07-17T18:24:24.803Z,53.90
2018-07-17T18:26:53.846Z,53.80
2018-07-17T18:29:22.584Z,54.10
2018-07-17T18:31:51.552Z,54.10
2018-07-17T18:34:20.460Z,55.00
2018-07-17T18:36:49.482Z,54.40
2018-07-17T18:39:18.407Z,54.40
2018-07-17T18:41:47.264Z,54.40
2018-07-17T18:44:16.051Z,54.60
2018-07-17T18:46:45.766Z,54.50
2018-07-17T18:49:14.685Z,54.60
2018-07-17T18:51:43.854Z,54.60
2018-07-17T18:54:13.119Z,54.60
2018-07-17T18:56:42.385Z,54.60
2018-07-17T18:59:11.726Z,55.10
2018-07-17T19:01:40.657Z,55.30
2018-07-17T19:04:09.460Z,55.50
2018-07-17T19:06:38.276Z,56.10
2018-07-17T19:09:08.616Z,56.00
2018-07-17T19:11:37.507Z,56.30
2018-07-17T19:14:06.420Z,56.30
2018-07-17T19:16:35.800Z,56.30
2018-07-17T19:19:04.636Z,56.40
2018-07-17T19:21:33.462Z,56.50
2018-07-17T19:24:02.460Z,56.50
2018-07-17T19:26:31.922Z,56.60
2018-07-17T19:29:00.952Z,56.40
2018-07-17T19:33:58.329Z,56.70
2018-07-17T19:36:27.170Z,56.50
2018-07-17T19:38:56.002Z,56.50
2018-07-17T19:41:24.994Z,56.50
2018-07-17T19:43:53.831Z,56.30
2018-07-17T19:46:22.642Z,56.40
2018-07-17T19:48:51.632Z,56.50
2018-07-17T19:51:20.428Z,56.70
2018-07-17T19:53:49.719Z,57.00
2018-07-17T19:56:18.518Z,56.90
2018-07-17T19:58:47.345Z,56.80
2018-07-17T20:01:16.091Z,56.80
2018-07-17T20:03:45.063Z,57.20
2018-07-17T20:06:13.833Z,57.30
2018-07-17T20:11:11.226Z,57.40
2018-07-17T20:13:40.045Z,57.60
2018-07-17T20:16:08.856Z,57.60
2018-07-17T20:18:37.614Z,57.80
2018-07-17T20:21:06.968Z,58.10
2018-07-17T20:23:36.176Z,58.10
2018-07-17T20:26:04.995Z,58.40
2018-07-17T20:28:33.802Z,58.60
2018-07-17T20:31:02.644Z,58.50
2018-07-17T20:33:31.603Z,58.70
2018-07-17T20:36:00.387Z,58.60
2018-07-17T20:38:29.317Z,59.00
2018-07-17T20:43:26.580Z,59.40
2018-07-17T20:48:24.014Z,60.20
2018-07-17T20:50:52.812Z,60.30
2018-07-17T20:53:21.631Z,60.60
2018-07-17T20:58:19.034Z,61.30
2018-07-17T21:00:47.880Z,61.40
2018-07-17T21:03:16.672Z,61.70
2018-07-17T21:05:45.554Z,61.70
2018-07-17T21:08:14.685Z,61.30
2018-07-17T21:10:43.470Z,61.00
2018-07-17T21:13:12.522Z,61.40
2018-07-17T21:15:41.269Z,61.70
2018-07-17T21:18:10.100Z,62.10
2018-07-17T21:20:39.637Z,62.00
2018-07-17T21:23:08.400Z,61.90
2018-07-17T21:25:37.183Z,62.10
2018-07-17T21:28:06.335Z,62.10
2018-07-17T21:33:04.012Z,62.10
2018-07-17T21:35:32.899Z,62.20
2018-07-17T21:38:01.698Z,62.30
2018-07-17T21:40:30.505Z,62.50
2018-07-17T21:42:59.466Z,62.30
2018-07-17T21:47:57.311Z,62.70
2018-07-17T21:50:26.572Z,62.00
2018-07-17T21:52:55.350Z,62.20
2018-07-17T21:55:24.180Z,62.60
2018-07-17T21:57:52.996Z,62.80
2018-07-17T22:00:21.841Z,62.80
2018-07-17T22:02:50.639Z,62.00
2018-07-17T22:05:19.429Z,62.40
2018-07-17T22:07:48.231Z,62.60
2018-07-17T22:10:17.151Z,62.80
2018-07-17T22:15:14.527Z,64.40
2018-07-17T22:17:43.296Z,63.90
2018-07-17T22:20:12.064Z,64.20
2018-07-17T22:22:40.808Z,64.60
2018-07-17T22:25:09.675Z,64.90
2018-07-17T22:27:38.622Z,65.30
2018-07-17T22:30:07.492Z,66.30
2018-07-17T22:32:36.337Z,65.60
2018-07-17T22:35:05.087Z,65.70
2018-07-17T22:37:34.152Z,65.90
2018-07-17T22:40:02.966Z,65.90
2018-07-17T22:42:31.668Z,65.30
2018-07-17T22:45:00.496Z,65.20
2018-07-17T22:47:29.398Z,65.50
2018-07-17T22:52:26.702Z,66.20
2018-07-17T22:54:55.475Z,66.20
2018-07-17T22:57:24.344Z,66.50
2018-07-17T22:59:53.132Z,66.50
2018-07-17T23:04:50.502Z,66.80
2018-07-17T23:07:19.347Z,65.60
2018-07-17T23:09:48.109Z,65.10
2018-07-17T23:12:17.018Z,64.80
2018-07-17T23:14:45.730Z,64.90
2018-07-17T23:17:14.479Z,64.60
2018-07-17T23:19:43.466Z,64.60
2018-07-17T23:22:14.162Z,64.70
2018-07-17T23:24:43.482Z,64.70
2018-07-17T23:27:13.105Z,64.80
2018-07-17T23:29:41.971Z,64.90
2018-07-17T23:32:10.815Z,64.80
2018-07-17T23:34:39.786Z,64.80
2018-07-17T23:37:08.623Z,64.80
2018-07-17T23:40:40.565Z,64.80
2018-07-17T23:43:09.353Z,65.20
2018-07-17T23:45:38.280Z,65.30
2018-07-17T23:48:07.095Z,65.30
2018-07-17T23:50:35.959Z,65.20
2018-07-17T23:53:05.383Z,65.50
2018-07-17T23:55:34.183Z,65.50
2018-07-17T23:58:02.980Z,65.90
